sensor_id;sensor_type;location;lat;lon;timestamp;pressure;altitude;pressure_sealevel;temperature;humidity
11212;BME280;5663;50.864;12.096;2022-09-14T00:00:26;98588.06;;;17.86;74.95
11212;BME280;5663;50.864;12.096;2022-09-14T00:02:55;98590.25;;;17.90;74.32
11212;BME280;5663;50.864;12.096;2022-09-14T00:05:25;98593.88;;;17.89;74.40
11212;BME280;5663;50.864;12.096;2022-09-14T00:07:54;98589.44;;;17.90;74.70
11212;BME280;5663;50.864;12.096;2022-09-14T00:10:26;98581.81;;;17.87;75.05
11212;BME280;5663;50.864;12.096;2022-09-14T00:12:56;98571.63;;;17.84;75.23
11212;BME280;5663;50.864;12.096;2022-09-14T00:15:26;98576.72;;;17.85;75.02
11212;BME280;5663;50.864;12.096;2022-09-14T00:17:56;98542.44;;;17.67;75.26
11212;BME280;5663;50.864;12.096;2022-09-14T00:20:26;98556.50;;;17.86;75.34
11212;BME280;5663;50.864;12.096;2022-09-14T00:22:57;98549.88;;;17.82;75.67
11212;BME280;5663;50.864;12.096;2022-09-14T00:25:29;98543.63;;;17.83;75.97
11212;BME280;5663;50.864;12.096;2022-09-14T00:27:58;98542.69;;;17.84;75.81
11212;BME280;5663;50.864;12.096;2022-09-14T00:30:27;98538.25;;;17.84;75.47
11212;BME280;5663;50.864;12.096;2022-09-14T00:32:59;98518.16;;;17.73;74.99
11212;BME280;5663;50.864;12.096;2022-09-14T00:35:29;98465.44;;;17.38;74.49
11212;BME280;5663;50.864;12.096;2022-09-14T00:37:59;98535.47;;;17.86;74.70
11212;BME280;5663;50.864;12.096;2022-09-14T00:40:30;98457.56;;;17.38;74.98
11212;BME280;5663;50.864;12.096;2022-09-14T00:42:58;98530.19;;;17.86;75.12
11212;BME280;5663;50.864;12.096;2022-09-14T00:45:28;98521.31;;;17.87;75.37
11212;BME280;5663;50.864;12.096;2022-09-14T00:48:03;98476.88;;;17.56;75.62
11212;BME280;5663;50.864;12.096;2022-09-14T00:50:32;98527.56;;;17.86;75.72
11212;BME280;5663;50.864;12.096;2022-09-14T00:53:05;98527.56;;;17.86;75.74
11212;BME280;5663;50.864;12.096;2022-09-14T00:55:36;98495.78;;;17.69;75.67
11212;BME280;5663;50.864;12.096;2022-09-14T00:58:07;98521.31;;;17.87;75.19
11212;BME280;5663;50.864;12.096;2022-09-14T01:00:36;98508.06;;;17.79;75.13
11212;BME280;5663;50.864;12.096;2022-09-14T01:03:05;98523.00;;;17.88;75.37
11212;BME280;5663;50.864;12.096;2022-09-14T01:05:48;98511.50;;;17.89;75.58
11212;BME280;5663;50.864;12.096;2022-09-14T01:08:48;98508.63;;;17.82;75.38
11212;BME280;5663;50.864;12.096;2022-09-14T01:11:42;98519.38;;;17.89;74.95
11212;BME280;5663;50.864;12.096;2022-09-14T01:14:24;98519.84;;;17.84;74.76
11212;BME280;5663;50.864;12.096;2022-09-14T01:17:01;98513.88;;;17.82;75.12
11212;BME280;5663;50.864;12.096;2022-09-14T01:19:54;98519.69;;;17.86;75.16
11212;BME280;5663;50.864;12.096;2022-09-14T01:22:36;98525.63;;;17.88;75.44
11212;BME280;5663;50.864;12.096;2022-09-14T01:25:18;98521.31;;;17.87;75.02
11212;BME280;5663;50.864;12.096;2022-09-14T01:27:51;98521.31;;;17.87;74.87
11212;BME280;5663;50.864;12.096;2022-09-14T01:30:22;98506.81;;;17.83;75.21
11212;BME280;5663;50.864;12.096;2022-09-14T01:32:53;98514.03;;;17.81;75.58
11212;BME280;5663;50.864;12.096;2022-09-14T01:35:27;98507.63;;;17.83;75.83
11212;BME280;5663;50.864;12.096;2022-09-14T01:38:01;98516.38;;;17.84;75.45
11212;BME280;5663;50.864;12.096;2022-09-14T01:40:35;98509.44;;;17.83;75.60
11212;BME280;5663;50.864;12.096;2022-09-14T01:43:10;98515.69;;;17.82;76.17
11212;BME280;5663;50.864;12.096;2022-09-14T01:45:45;98511.41;;;17.81;76.43
11212;BME280;5663;50.864;12.096;2022-09-14T01:48:17;98519.97;;;17.83;76.46
11212;BME280;5663;50.864;12.096;2022-09-14T01:50:51;98513.31;;;17.79;75.80
11212;BME280;5663;50.864;12.096;2022-09-14T01:53:25;98495.78;;;17.69;75.92
11212;BME280;5663;50.864;12.096;2022-09-14T01:56:04;98516.06;;;17.87;76.16
11212;BME280;5663;50.864;12.096;2022-09-14T01:58:42;98513.59;;;17.85;76.45
11212;BME280;5663;50.864;12.096;2022-09-14T02:01:18;98488.56;;;17.71;76.81
11212;BME280;5663;50.864;12.096;2022-09-14T02:03:50;98513.31;;;17.88;77.05
11212;BME280;5663;50.864;12.096;2022-09-14T02:06:25;98514.94;;;17.89;77.10
11212;BME280;5663;50.864;12.096;2022-09-14T02:08:55;98506.41;;;17.87;77.07
11212;BME280;5663;50.864;12.096;2022-09-14T02:11:24;98507.75;;;17.91;77.40
11212;BME280;5663;50.864;12.096;2022-09-14T02:13:55;98496.38;;;17.91;77.49
11212;BME280;5663;50.864;12.096;2022-09-14T02:16:24;98496.97;;;17.85;77.66
11212;BME280;5663;50.864;12.096;2022-09-14T02:18:53;98492.81;;;17.92;77.68
11212;BME280;5663;50.864;12.096;2022-09-14T02:21:25;98468.78;;;17.77;77.95
11212;BME280;5663;50.864;12.096;2022-09-14T02:23:55;98502.34;;;17.93;77.78
11212;BME280;5663;50.864;12.096;2022-09-14T02:26:25;98496.53;;;17.89;77.42
11212;BME280;5663;50.864;12.096;2022-09-14T02:28:57;98508.28;;;17.95;77.42
11212;BME280;5663;50.864;12.096;2022-09-14T02:31:35;98503.72;;;17.97;77.32
11212;BME280;5663;50.864;12.096;2022-09-14T02:34:14;98498.28;;;17.98;77.24
11212;BME280;5663;50.864;12.096;2022-09-14T02:36:48;98490.25;;;18.00;77.50
11212;BME280;5663;50.864;12.096;2022-09-14T02:39:26;98482.50;;;17.98;77.67
11212;BME280;5663;50.864;12.096;2022-09-14T02:42:04;98487.47;;;18.02;77.80
11212;BME280;5663;50.864;12.096;2022-09-14T02:44:42;98485.66;;;18.02;77.85
11212;BME280;5663;50.864;12.096;2022-09-14T02:47:18;98478.59;;;18.03;77.30
11212;BME280;5663;50.864;12.096;2022-09-14T02:49:55;98467.25;;;18.02;77.24
11212;BME280;5663;50.864;12.096;2022-09-14T02:52:31;98458.09;;;18.06;77.56
11212;BME280;5663;50.864;12.096;2022-09-14T02:55:05;98436.56;;;17.93;77.58
11212;BME280;5663;50.864;12.096;2022-09-14T02:58:00;98446.44;;;18.09;77.63
11212;BME280;5663;50.864;12.096;2022-09-14T03:00:40;98445.91;;;18.05;77.75
11212;BME280;5663;50.864;12.096;2022-09-14T03:03:14;98456.44;;;18.05;77.72
11212;BME280;5663;50.864;12.096;2022-09-14T03:05:45;98456.59;;;18.04;78.00
11212;BME280;5663;50.864;12.096;2022-09-14T03:08:16;98456.44;;;18.05;78.07
11212;BME280;5663;50.864;12.096;2022-09-14T03:10:45;98442.28;;;18.06;78.19
11212;BME280;5663;50.864;12.096;2022-09-14T03:13:14;98427.66;;;18.04;78.19
11212;BME280;5663;50.864;12.096;2022-09-14T03:15:45;98430.94;;;18.06;78.21
11212;BME280;5663;50.864;12.096;2022-09-14T03:18:21;98438.84;;;18.06;78.12
11212;BME280;5663;50.864;12.096;2022-09-14T03:20:52;98437.31;;;18.03;77.93
11212;BME280;5663;50.864;12.096;2022-09-14T03:23:23;98439.97;;;18.03;77.85
11212;BME280;5663;50.864;12.096;2022-09-14T03:25:53;98434.69;;;18.03;77.49
11212;BME280;5663;50.864;12.096;2022-09-14T03:28:22;98442.59;;;18.03;77.05
11212;BME280;5663;50.864;12.096;2022-09-14T03:30:52;98424.25;;;17.93;77.40
11212;BME280;5663;50.864;12.096;2022-09-14T03:36:41;98443.44;;;18.04;77.62
11212;BME280;5663;50.864;12.096;2022-09-14T03:39:30;98433.75;;;18.04;77.15
11212;BME280;5663;50.864;12.096;2022-09-14T03:42:02;98427.66;;;18.04;77.44
11212;BME280;5663;50.864;12.096;2022-09-14T03:44:33;98403.66;;;17.89;77.39
11212;BME280;5663;50.864;12.096;2022-09-14T03:47:06;98413.81;;;18.02;77.85
11212;BME280;5663;50.864;12.096;2022-09-14T03:49:36;98410.06;;;18.04;77.84
11212;BME280;5663;50.864;12.096;2022-09-14T03:52:07;98421.53;;;18.03;77.57
11212;BME280;5663;50.864;12.096;2022-09-14T03:54:38;98426.78;;;18.03;77.58
11212;BME280;5663;50.864;12.096;2022-09-14T03:57:07;98431.09;;;18.04;77.60
11212;BME280;5663;50.864;12.096;2022-09-14T03:59:37;98442.28;;;18.06;77.81
11212;BME280;5663;50.864;12.096;2022-09-14T04:02:09;98441.31;;;18.07;78.06
11212;BME280;5663;50.864;12.096;2022-09-14T04:04:37;98435.09;;;18.08;77.93
11212;BME280;5663;50.864;12.096;2022-09-14T04:07:06;98432.31;;;18.10;78.11
11212;BME280;5663;50.864;12.096;2022-09-14T04:09:36;98420.19;;;17.99;78.05
11212;BME280;5663;50.864;12.096;2022-09-14T04:12:07;98421.25;;;18.06;78.10
11212;BME280;5663;50.864;12.096;2022-09-14T04:14:39;98427.03;;;18.10;78.42
11212;BME280;5663;50.864;12.096;2022-09-14T04:17:09;98420.94;;;18.09;78.42
11212;BME280;5663;50.864;12.096;2022-09-14T04:19:38;98392.50;;;17.95;78.46
11212;BME280;5663;50.864;12.096;2022-09-14T04:22:08;98410.06;;;18.04;78.88
11212;BME280;5663;50.864;12.096;2022-09-14T04:24:54;98411.88;;;18.04;78.89
11212;BME280;5663;50.864;12.096;2022-09-14T04:27:24;98419.59;;;18.05;78.94
11212;BME280;5663;50.864;12.096;2022-09-14T04:29:52;98400.94;;;17.98;79.14
11212;BME280;5663;50.864;12.096;2022-09-14T04:32:24;98417.94;;;18.04;79.27
11212;BME280;5663;50.864;12.096;2022-09-14T04:34:52;98409.38;;;18.02;79.28
11212;BME280;5663;50.864;12.096;2022-09-14T04:37:21;98412.00;;;18.02;79.45
11212;BME280;5663;50.864;12.096;2022-09-14T04:39:52;98412.97;;;18.01;79.50
11212;BME280;5663;50.864;12.096;2022-09-14T04:42:25;98408.69;;;18.00;79.32
11212;BME280;5663;50.864;12.096;2022-09-14T04:45:11;98398.47;;;17.97;78.90
11212;BME280;5663;50.864;12.096;2022-09-14T04:48:19;98411.00;;;18.03;78.94
11212;BME280;5663;50.864;12.096;2022-09-14T04:50:50;98409.38;;;18.02;79.08
11212;BME280;5663;50.864;12.096;2022-09-14T04:53:31;98407.72;;;18.01;79.11
11212;BME280;5663;50.864;12.096;2022-09-14T04:56:05;98417.53;;;17.99;78.93
11212;BME280;5663;50.864;12.096;2022-09-14T04:58:42;98402.22;;;17.94;78.07
11212;BME280;5663;50.864;12.096;2022-09-14T05:01:20;98410.63;;;17.98;77.82
11212;BME280;5663;50.864;12.096;2022-09-14T05:03:54;98419.34;;;17.98;78.13
11212;BME280;5663;50.864;12.096;2022-09-14T05:06:31;98413.28;;;17.98;78.11
11212;BME280;5663;50.864;12.096;2022-09-14T05:12:56;98419.22;;;18.00;78.42
11212;BME280;5663;50.864;12.096;2022-09-14T05:15:41;98418.25;;;18.01;78.51
11212;BME280;5663;50.864;12.096;2022-09-14T05:18:27;98406.66;;;17.94;78.60
11212;BME280;5663;50.864;12.096;2022-09-14T05:21:02;98415.63;;;18.01;78.92
11212;BME280;5663;50.864;12.096;2022-09-14T05:23:35;98409.38;;;18.02;79.04
11212;BME280;5663;50.864;12.096;2022-09-14T05:26:06;98403.13;;;18.03;78.98
11212;BME280;5663;50.864;12.096;2022-09-14T05:28:47;98404.78;;;18.04;79.37
11212;BME280;5663;50.864;12.096;2022-09-14T05:31:30;98387.41;;;17.93;79.34
11212;BME280;5663;50.864;12.096;2022-09-14T05:34:19;98401.03;;;18.07;79.09
11212;BME280;5663;50.864;12.096;2022-09-14T05:37:00;98400.06;;;18.08;79.21
11212;BME280;5663;50.864;12.096;2022-09-14T05:39:59;98396.59;;;18.07;78.97
11212;BME280;5663;50.864;12.096;2022-09-14T05:58:21;98404.25;;;18.18;78.00
11212;BME280;5663;50.864;12.096;2022-09-14T06:05:48;98395.78;;;18.25;78.56
11212;BME280;5663;50.864;12.096;2022-09-14T06:08:23;98369.03;;;18.11;79.22
11212;BME280;5663;50.864;12.096;2022-09-14T06:11:11;98398.94;;;18.28;79.85
11212;BME280;5663;50.864;12.096;2022-09-14T06:17:36;98387.66;;;18.36;79.99
11212;BME280;5663;50.864;12.096;2022-09-14T06:20:13;98387.50;;;18.37;80.29
11212;BME280;5663;50.864;12.096;2022-09-14T06:22:50;98383.41;;;18.43;80.45
11212;BME280;5663;50.864;12.096;2022-09-14T06:25:26;98385.44;;;18.49;80.51
11212;BME280;5663;50.864;12.096;2022-09-14T06:27:58;98379.88;;;18.52;80.74
11212;BME280;5663;50.864;12.096;2022-09-14T06:30:27;98377.91;;;18.54;80.88
11212;BME280;5663;50.864;12.096;2022-09-14T06:32:59;98377.63;;;18.57;81.18
11212;BME280;5663;50.864;12.096;2022-09-14T06:35:29;98367.72;;;18.51;81.31
11212;BME280;5663;50.864;12.096;2022-09-14T06:38:01;98372.56;;;18.64;81.41
11212;BME280;5663;50.864;12.096;2022-09-14T06:41:04;98377.50;;;18.67;81.30
11212;BME280;5663;50.864;12.096;2022-09-14T06:43:40;98376.25;;;18.71;81.42
11212;BME280;5663;50.864;12.096;2022-09-14T06:46:21;98385.53;;;18.75;81.58
11212;BME280;5663;50.864;12.096;2022-09-14T06:49:09;98377.44;;;18.77;81.56
11212;BME280;5663;50.864;12.096;2022-09-14T06:51:41;98338.28;;;18.56;81.51
11212;BME280;5663;50.864;12.096;2022-09-14T06:54:16;98373.22;;;18.84;81.55
11212;BME280;5663;50.864;12.096;2022-09-14T06:56:48;98376.22;;;18.89;81.50
11212;BME280;5663;50.864;12.096;2022-09-14T06:59:18;98378.69;;;18.90;81.57
11212;BME280;5663;50.864;12.096;2022-09-14T07:02:03;98378.38;;;18.93;81.63
11212;BME280;5663;50.864;12.096;2022-09-14T07:04:42;98373.63;;;18.97;81.54
11212;BME280;5663;50.864;12.096;2022-09-14T07:07:15;98376.94;;;18.99;81.69
11212;BME280;5663;50.864;12.096;2022-09-14T07:09:52;98379.25;;;19.02;81.69
11212;BME280;5663;50.864;12.096;2022-09-14T07:12:24;98378.13;;;19.05;81.88
11212;BME280;5663;50.864;12.096;2022-09-14T07:15:03;98379.63;;;19.07;81.98
11212;BME280;5663;50.864;12.096;2022-09-14T07:17:43;98373.06;;;19.11;82.02
11212;BME280;5663;50.864;12.096;2022-09-14T07:20:22;98378.97;;;19.13;82.00
11212;BME280;5663;50.864;12.096;2022-09-14T07:22:59;98376.03;;;19.16;82.22
11212;BME280;5663;50.864;12.096;2022-09-14T07:26:01;98369.78;;;19.17;82.24
11212;BME280;5663;50.864;12.096;2022-09-14T07:28:36;98376.25;;;19.23;82.20
11212;BME280;5663;50.864;12.096;2022-09-14T07:31:15;98358.25;;;19.18;82.35
11212;BME280;5663;50.864;12.096;2022-09-14T07:33:45;98368.81;;;19.27;82.10
11212;BME280;5663;50.864;12.096;2022-09-14T07:36:16;98374.59;;;19.30;82.15
11212;BME280;5663;50.864;12.096;2022-09-14T07:38:44;98342.91;;;19.14;82.13
11212;BME280;5663;50.864;12.096;2022-09-14T07:41:14;98374.13;;;19.35;82.02
11212;BME280;5663;50.864;12.096;2022-09-14T07:44:02;98377.28;;;19.38;82.10
11212;BME280;5663;50.864;12.096;2022-09-14T07:46:37;98359.44;;;19.24;81.93
11212;BME280;5663;50.864;12.096;2022-09-14T07:49:14;98383.06;;;19.42;82.04
11212;BME280;5663;50.864;12.096;2022-09-14T07:51:49;98387.22;;;19.44;82.16
11212;BME280;5663;50.864;12.096;2022-09-14T07:54:28;98380.81;;;19.47;82.19
11212;BME280;5663;50.864;12.096;2022-09-14T07:57:12;98378.81;;;19.49;82.06
11212;BME280;5663;50.864;12.096;2022-09-14T07:59:45;98382.13;;;19.51;82.27
11212;BME280;5663;50.864;12.096;2022-09-14T08:02:40;98383.78;;;19.52;82.19
11212;BME280;5663;50.864;12.096;2022-09-14T08:05:32;98378.50;;;19.52;81.97
11212;BME280;5663;50.864;12.096;2022-09-14T08:08:03;98378.50;;;19.52;82.09
11212;BME280;5663;50.864;12.096;2022-09-14T08:14:13;98382.63;;;19.55;81.92
11212;BME280;5663;50.864;12.096;2022-09-14T08:17:08;98382.78;;;19.53;81.96
11212;BME280;5663;50.864;12.096;2022-09-14T08:23:12;98380.97;;;19.54;82.10
11212;BME280;5663;50.864;12.096;2022-09-14T08:25:43;98371.25;;;19.54;81.99
11212;BME280;5663;50.864;12.096;2022-09-14T08:28:24;98346.81;;;19.36;82.18
11212;BME280;5663;50.864;12.096;2022-09-14T08:31:04;98369.59;;;19.53;82.44
11212;BME280;5663;50.864;12.096;2022-09-14T08:33:37;98359.88;;;19.54;82.44
11212;BME280;5663;50.864;12.096;2022-09-14T08:36:12;98366.66;;;19.56;82.42
11212;BME280;5663;50.864;12.096;2022-09-14T08:38:46;98361.19;;;19.58;82.53
11212;BME280;5663;50.864;12.096;2022-09-14T08:41:26;98356.75;;;19.58;82.28
11212;BME280;5663;50.864;12.096;2022-09-14T08:44:01;98356.09;;;19.56;82.34
11212;BME280;5663;50.864;12.096;2022-09-14T08:46:32;98356.75;;;19.58;82.35
11212;BME280;5663;50.864;12.096;2022-09-14T08:49:08;98358.09;;;19.62;82.49
11212;BME280;5663;50.864;12.096;2022-09-14T08:51:40;98358.09;;;19.62;82.14
11212;BME280;5663;50.864;12.096;2022-09-14T08:54:26;98352.84;;;19.62;82.24
11212;BME280;5663;50.864;12.096;2022-09-14T09:09:42;98336.69;;;19.65;81.96
11212;BME280;5663;50.864;12.096;2022-09-14T09:12:16;98348.25;;;19.73;82.33
11212;BME280;5663;50.864;12.096;2022-09-14T09:14:50;98351.72;;;19.73;82.04
11212;BME280;5663;50.864;12.096;2022-09-14T09:17:27;98356.34;;;19.71;81.91
11212;BME280;5663;50.864;12.096;2022-09-14T09:20:08;98342.47;;;19.69;81.99
11212;BME280;5663;50.864;12.096;2022-09-14T09:22:46;98346.94;;;19.68;82.06
11212;BME280;5663;50.864;12.096;2022-09-14T09:25:23;98351.88;;;19.72;82.34
11212;BME280;5663;50.864;12.096;2022-09-14T09:28:01;98359.63;;;19.73;81.99
11212;BME280;5663;50.864;12.096;2022-09-14T09:30:39;98349.41;;;19.70;81.57
11212;BME280;5663;50.864;12.096;2022-09-14T09:33:15;98346.63;;;19.72;81.50
11212;BME280;5663;50.864;12.096;2022-09-14T09:35:58;98344.63;;;19.74;81.44
11212;BME280;5663;50.864;12.096;2022-09-14T09:38:34;98342.81;;;19.74;81.79
11212;BME280;5663;50.864;12.096;2022-09-14T09:41:25;98337.03;;;19.79;81.72
11212;BME280;5663;50.864;12.096;2022-09-14T09:44:01;98333.25;;;19.81;81.80
11212;BME280;5663;50.864;12.096;2022-09-14T09:46:49;98326.84;;;19.76;81.65
11212;BME280;5663;50.864;12.096;2022-09-14T09:49:24;98337.41;;;19.84;81.55
11212;BME280;5663;50.864;12.096;2022-09-14T09:52:05;98332.28;;;19.82;81.73
11212;BME280;5663;50.864;12.096;2022-09-14T09:54:41;98311.94;;;19.66;81.25
11212;BME280;5663;50.864;12.096;2022-09-14T09:57:32;98343.31;;;19.78;80.94
11212;BME280;5663;50.864;12.096;2022-09-14T10:00:37;98342.66;;;19.76;81.58
11212;BME280;5663;50.864;12.096;2022-09-14T10:03:36;98345.94;;;19.78;81.27
11212;BME280;5663;50.864;12.096;2022-09-14T10:06:28;98347.94;;;19.76;81.35
11212;BME280;5663;50.864;12.096;2022-09-14T10:09:02;98350.09;;;19.80;81.74
11212;BME280;5663;50.864;12.096;2022-09-14T10:11:42;98333.06;;;19.75;81.65
11212;BME280;5663;50.864;12.096;2022-09-14T10:14:26;98344.81;;;19.80;81.29
11212;BME280;5663;50.864;12.096;2022-09-14T10:17:18;98333.56;;;19.70;81.60
11212;BME280;5663;50.864;12.096;2022-09-14T10:19:50;98342.31;;;19.79;81.56
11212;BME280;5663;50.864;12.096;2022-09-14T12:22:35;98261.44;;;20.76;81.63
11212;BME280;5663;50.864;12.096;2022-09-14T12:25:22;98248.88;;;20.78;81.58
11212;BME280;5663;50.864;12.096;2022-09-14T12:28:39;98250.31;;;20.88;81.76
11212;BME280;5663;50.864;12.096;2022-09-14T12:34:30;98246.16;;;20.94;81.46
11212;BME280;5663;50.864;12.096;2022-09-14T12:46:38;98238.03;;;21.04;81.43
11212;BME280;5663;50.864;12.096;2022-09-14T12:49:27;98243.16;;;21.05;81.64
11212;BME280;5663;50.864;12.096;2022-09-14T12:52:30;98240.84;;;21.02;81.84
11212;BME280;5663;50.864;12.096;2022-09-14T12:55:32;98245.16;;;21.03;81.79
11212;BME280;5663;50.864;12.096;2022-09-14T12:58:41;98245.16;;;21.03;81.44
11212;BME280;5663;50.864;12.096;2022-09-14T13:01:28;98236.22;;;21.04;81.87
11212;BME280;5663;50.864;12.096;2022-09-14T13:07:27;98231.91;;;21.11;81.85
11212;BME280;5663;50.864;12.096;2022-09-14T13:10:26;98193.47;;;20.92;81.43
11212;BME280;5663;50.864;12.096;2022-09-14T13:13:33;98224.59;;;21.13;80.83
11212;BME280;5663;50.864;12.096;2022-09-14T13:16:23;98211.41;;;21.05;81.08
11212;BME280;5663;50.864;12.096;2022-09-14T13:19:29;98222.13;;;21.12;80.83
11212;BME280;5663;50.864;12.096;2022-09-14T13:22:02;98222.13;;;21.12;80.88
11212;BME280;5663;50.864;12.096;2022-09-14T13:25:15;98211.72;;;21.10;81.25
11212;BME280;5663;50.864;12.096;2022-09-14T13:28:14;98221.28;;;21.20;81.74
11212;BME280;5663;50.864;12.096;2022-09-14T13:30:59;98215.03;;;21.12;81.00
11212;BME280;5663;50.864;12.096;2022-09-14T13:33:38;98215.03;;;21.12;81.92
11212;BME280;5663;50.864;12.096;2022-09-14T13:36:16;98215.69;;;21.14;81.52
11212;BME280;5663;50.864;12.096;2022-09-14T13:38:51;98208.91;;;21.12;81.52
11212;BME280;5663;50.864;12.096;2022-09-14T13:41:26;98208.44;;;21.08;81.13
11212;BME280;5663;50.864;12.096;2022-09-14T13:44:24;98217.38;;;21.07;81.43
11212;BME280;5663;50.864;12.096;2022-09-14T13:47:04;98216.06;;;21.03;80.97
11212;BME280;5663;50.864;12.096;2022-09-14T13:50:18;98219.38;;;20.97;81.41
11212;BME280;5663;50.864;12.096;2022-09-14T13:53:43;98214.44;;;20.94;81.21
11212;BME280;5663;50.864;12.096;2022-09-14T13:56:32;98215.09;;;20.96;80.87
11212;BME280;5663;50.864;12.096;2022-09-14T13:59:18;98213.75;;;21.00;81.21
11212;BME280;5663;50.864;12.096;2022-09-14T14:05:23;98214.41;;;21.02;81.09
11212;BME280;5663;50.864;12.096;2022-09-14T14:07:58;98203.66;;;21.04;81.46
11212;BME280;5663;50.864;12.096;2022-09-14T14:10:56;98199.72;;;21.00;81.33
11212;BME280;5663;50.864;12.096;2022-09-14T14:13:46;98207.66;;;21.00;81.18
11212;BME280;5663;50.864;12.096;2022-09-14T14:16:20;98187.22;;;20.85;81.44
11212;BME280;5663;50.864;12.096;2022-09-14T14:18:53;98206.19;;;20.97;81.58
11212;BME280;5663;50.864;12.096;2022-09-14T14:21:29;98202.72;;;20.97;81.47
11212;BME280;5663;50.864;12.096;2022-09-14T15:24:15;98140.53;;;20.30;81.40
11212;BME280;5663;50.864;12.096;2022-09-14T15:30:34;98136.75;;;20.33;81.47
11212;BME280;5663;50.864;12.096;2022-09-14T15:33:05;98133.28;;;20.32;81.52
11212;BME280;5663;50.864;12.096;2022-09-14T15:38:51;98136.09;;;20.31;81.26
11212;BME280;5663;50.864;12.096;2022-09-14T15:41:38;98123.88;;;20.30;81.30
11212;BME280;5663;50.864;12.096;2022-09-14T15:44:32;98126.34;;;20.31;81.11
11212;BME280;5663;50.864;12.096;2022-09-14T15:47:16;98118.47;;;20.23;80.82
11212;BME280;5663;50.864;12.096;2022-09-14T15:49:49;98135.63;;;20.27;81.26
11212;BME280;5663;50.864;12.096;2022-09-14T15:52:19;98121.25;;;20.22;81.07
11212;BME280;5663;50.864;12.096;2022-09-14T15:54:51;98126.53;;;20.22;81.08
11212;BME280;5663;50.864;12.096;2022-09-14T15:57:25;98123.56;;;20.25;81.39
11212;BME280;5663;50.864;12.096;2022-09-14T16:00:01;98117.94;;;20.28;81.37
11212;BME280;5663;50.864;12.096;2022-09-14T16:02:40;98118.94;;;20.27;81.48
11212;BME280;5663;50.864;12.096;2022-09-14T16:05:09;98117.28;;;20.26;81.41
11212;BME280;5663;50.864;12.096;2022-09-14T16:08:01;98112.00;;;20.26;81.46
11212;BME280;5663;50.864;12.096;2022-09-14T16:10:39;98105.41;;;20.22;81.54
11212;BME280;5663;50.864;12.096;2022-09-14T16:13:15;98120.94;;;20.25;81.33
11212;BME280;5663;50.864;12.096;2022-09-14T16:15:49;98105.09;;;20.25;81.50
11212;BME280;5663;50.864;12.096;2022-09-14T16:18:25;98102.44;;;20.25;81.66
11212;BME280;5663;50.864;12.096;2022-09-14T16:21:08;98097.16;;;20.25;81.47
11212;BME280;5663;50.864;12.096;2022-09-14T17:23:55;98033.88;;;20.08;82.91
11212;BME280;5663;50.864;12.096;2022-09-14T17:26:37;98034.88;;;20.07;83.11
11212;BME280;5663;50.864;12.096;2022-09-14T17:29:09;98027.59;;;20.09;83.18
11212;BME280;5663;50.864;12.096;2022-09-14T17:31:43;98025.78;;;20.10;83.36
11212;BME280;5663;50.864;12.096;2022-09-14T17:34:15;98024.31;;;20.07;83.14
11212;BME280;5663;50.864;12.096;2022-09-14T17:37:19;98016.69;;;20.12;83.19
11212;BME280;5663;50.864;12.096;2022-09-14T17:39:53;98012.44;;;20.11;83.27
11212;BME280;5663;50.864;12.096;2022-09-14T17:43:05;98014.25;;;20.11;83.14
11212;BME280;5663;50.864;12.096;2022-09-14T17:45:52;98006.31;;;20.11;83.39
11212;BME280;5663;50.864;12.096;2022-09-14T17:48:37;97996.94;;;20.08;83.27
11212;BME280;5663;50.864;12.096;2022-09-14T17:51:38;97998.56;;;20.09;83.11
11212;BME280;5663;50.864;12.096;2022-09-14T18:01:46;97966.34;;;19.91;82.65
11212;BME280;5663;50.864;12.096;2022-09-14T18:04:17;97991.84;;;20.07;82.66
11212;BME280;5663;50.864;12.096;2022-09-14T18:06:53;98003.22;;;20.07;82.59
11212;BME280;5663;50.864;12.096;2022-09-14T18:09:50;98005.19;;;20.05;82.84
11212;BME280;5663;50.864;12.096;2022-09-14T18:12:23;97993.03;;;19.96;82.45
11212;BME280;5663;50.864;12.096;2022-09-14T18:14:53;97995.88;;;19.78;82.65
11212;BME280;5663;50.864;12.096;2022-09-14T18:17:27;98006.97;;;19.57;83.05
11212;BME280;5663;50.864;12.096;2022-09-14T18:19:57;97984.94;;;19.34;83.05
11212;BME280;5663;50.864;12.096;2022-09-14T18:22:28;98012.28;;;19.33;82.95
11212;BME280;5663;50.864;12.096;2022-09-14T18:24:58;98011.97;;;19.28;82.77
11212;BME280;5663;50.864;12.096;2022-09-14T18:27:31;98026.13;;;19.27;82.62
11212;BME280;5663;50.864;12.096;2022-09-14T18:30:00;98018.56;;;19.24;82.20
11212;BME280;5663;50.864;12.096;2022-09-14T18:32:35;98004.25;;;19.10;82.13
11212;BME280;5663;50.864;12.096;2022-09-14T18:35:06;97985.97;;;18.92;82.02
11212;BME280;5663;50.864;12.096;2022-09-14T18:37:35;98018.91;;;18.96;82.23
11212;BME280;5663;50.864;12.096;2022-09-14T18:40:05;98020.88;;;18.94;82.14
11212;BME280;5663;50.864;12.096;2022-09-14T18:42:42;98035.22;;;19.00;82.16
11212;BME280;5663;50.864;12.096;2022-09-14T18:45:10;98035.72;;;19.03;82.02
11212;BME280;5663;50.864;12.096;2022-09-14T18:47:40;98027.81;;;19.03;82.36
11212;BME280;5663;50.864;12.096;2022-09-14T18:50:09;98034.03;;;19.02;82.54
11212;BME280;5663;50.864;12.096;2022-09-14T18:52:45;98037.34;;;19.04;82.26
11212;BME280;5663;50.864;12.096;2022-09-14T18:55:14;98043.94;;;19.08;81.66
11212;BME280;5663;50.864;12.096;2022-09-14T18:57:45;98046.59;;;19.08;81.50
11212;BME280;5663;50.864;12.096;2022-09-14T19:00:16;98047.56;;;19.07;81.51
11212;BME280;5663;50.864;12.096;2022-09-14T19:02:52;97987.59;;;18.68;81.31
11212;BME280;5663;50.864;12.096;2022-09-14T19:05:25;98046.41;;;19.10;81.02
11212;BME280;5663;50.864;12.096;2022-09-14T19:07:56;98048.03;;;19.11;81.01
11212;BME280;5663;50.864;12.096;2022-09-14T19:10:24;98053.97;;;19.05;81.13
11212;BME280;5663;50.864;12.096;2022-09-14T19:12:52;98048.22;;;19.01;81.31
11212;BME280;5663;50.864;12.096;2022-09-14T19:15:20;98074.25;;;19.04;81.19
11212;BME280;5663;50.864;12.096;2022-09-14T19:17:53;98088.41;;;19.03;81.18
11212;BME280;5663;50.864;12.096;2022-09-14T19:20:22;98083.47;;;18.92;81.03